createdAt,value
2023-05-06T04:56:56.092Z,12.90
2023-05-06T04:59:23.396Z,14.73
2023-05-06T05:01:50.777Z,13.43
2023-05-06T05:04:17.340Z,15.80
2023-05-06T05:06:43.951Z,12.35
2023-05-06T05:09:11.977Z,12.23
2023-05-06T05:11:42.016Z,12.50
2023-05-06T05:14:08.650Z,13.70
2023-05-06T05:16:35.397Z,14.25
2023-05-06T05:19:03.964Z,11.27
2023-05-06T05:21:32.939Z,12.43
2023-05-06T05:24:00.337Z,14.48
2023-05-06T05:26:27.059Z,11.77
2023-05-06T05:28:55.644Z,13.40
2023-05-06T05:31:23.118Z,12.35
2023-05-06T05:33:50.197Z,11.60
2023-05-06T05:36:20.302Z,13.13
2023-05-06T05:38:49.428Z,12.57
2023-05-06T05:41:17.641Z,12.88
2023-05-06T05:43:45.309Z,12.48
2023-05-06T05:46:11.830Z,11.68
2023-05-06T05:48:40.142Z,12.32
2023-05-06T05:51:07.252Z,14.82
2023-05-06T05:53:33.819Z,11.93
2023-05-06T05:56:00.392Z,11.88
2023-05-06T05:58:26.955Z,10.27
2023-05-06T06:00:56.819Z,12.77
2023-05-06T06:03:23.492Z,13.00
2023-05-06T06:05:52.886Z,12.65
2023-05-06T06:08:19.484Z,12.40
2023-05-06T06:10:49.468Z,12.35
2023-05-06T06:13:20.546Z,14.35
2023-05-06T06:15:47.266Z,12.77
2023-05-06T06:18:14.506Z,12.60
2023-05-06T06:20:41.775Z,12.45
2023-05-06T06:23:08.458Z,11.45
2023-05-06T06:25:35.496Z,12.93
2023-05-06T06:28:01.974Z,14.35
2023-05-06T06:30:28.593Z,12.35
2023-05-06T06:32:56.514Z,14.88
2023-05-06T06:35:23.729Z,12.77
2023-05-06T06:37:50.472Z,12.68
2023-05-06T06:40:17.105Z,12.75
2023-05-06T06:42:43.621Z,13.15
2023-05-06T06:45:30.487Z,14.57
2023-05-06T06:47:57.382Z,12.82
2023-05-06T06:50:23.833Z,12.73
2023-05-06T06:52:50.364Z,12.75
2023-05-06T06:55:16.874Z,15.63
2023-05-06T06:57:43.446Z,15.45
2023-05-06T07:00:10.514Z,12.65
2023-05-06T07:02:37.089Z,12.38
2023-05-06T07:05:04.206Z,13.27
2023-05-06T07:07:30.759Z,14.93
2023-05-06T07:09:57.439Z,11.90
2023-05-06T07:12:24.626Z,14.70
2023-05-06T07:14:51.326Z,14.95
2023-05-06T07:17:17.808Z,13.45
2023-05-06T07:19:44.299Z,13.45
2023-05-06T07:22:10.742Z,14.32
2023-05-06T07:24:37.218Z,13.75
2023-05-06T07:27:04.278Z,15.77
2023-05-06T07:29:30.782Z,13.38
2023-05-06T07:31:57.232Z,13.85
2023-05-06T07:34:23.654Z,13.40
2023-05-06T07:36:50.623Z,13.27
2023-05-06T07:39:17.191Z,13.52
2023-05-06T07:41:43.672Z,15.50
2023-05-06T07:44:10.173Z,14.15
2023-05-06T07:46:36.750Z,13.57
2023-05-06T07:49:03.315Z,12.85
2023-05-06T07:51:29.875Z,12.43
2023-05-06T07:53:56.391Z,12.25
2023-05-06T07:56:23.192Z,11.60
2023-05-06T07:58:49.606Z,13.30
2023-05-06T08:01:16.402Z,12.15
2023-05-06T08:03:43.399Z,12.20
2023-05-06T08:06:10.021Z,10.98
2023-05-06T08:08:36.585Z,15.50
2023-05-06T08:11:03.276Z,11.43
2023-05-06T08:13:30.545Z,11.57
2023-05-06T08:15:57.086Z,12.95
2023-05-06T08:18:23.634Z,10.90
2023-05-06T08:20:51.083Z,11.20
2023-05-06T08:23:17.670Z,14.10
2023-05-06T08:25:44.251Z,13.45
2023-05-06T08:28:10.838Z,11.65
2023-05-06T08:30:37.501Z,10.10
2023-05-06T08:33:04.083Z,11.80
2023-05-06T08:35:30.709Z,10.88
2023-05-06T08:37:57.207Z,10.05
2023-05-06T08:40:26.507Z,9.90
2023-05-06T08:42:55.284Z,9.15
2023-05-06T08:45:22.612Z,7.95
2023-05-06T08:47:49.128Z,8.47
2023-05-06T08:50:15.952Z,11.13
2023-05-06T08:52:42.466Z,8.55
2023-05-06T08:55:09.601Z,10.38
2023-05-06T08:57:37.090Z,9.27
2023-05-06T09:00:04.883Z,9.20
2023-05-06T09:02:31.468Z,12.38
2023-05-06T09:04:58.164Z,7.65
2023-05-06T09:07:24.713Z,8.27
2023-05-06T09:09:51.558Z,7.95
2023-05-06T09:12:18.544Z,7.85
2023-05-06T09:14:46.667Z,6.60
2023-05-06T09:17:24.446Z,7.13
2023-05-06T09:19:52.377Z,9.48
2023-05-06T09:22:21.502Z,5.85
2023-05-06T09:24:56.456Z,7.20
2023-05-06T09:27:35.180Z,6.13
2023-05-06T09:30:03.165Z,5.50
2023-05-06T09:32:29.868Z,5.57
2023-05-06T09:34:56.581Z,6.25
2023-05-06T09:37:24.025Z,5.57
2023-05-06T09:39:53.376Z,5.00
2023-05-06T09:42:21.739Z,7.60
2023-05-06T09:44:48.280Z,7.70
2023-05-06T09:47:14.915Z,4.63
2023-05-06T09:49:42.026Z,4.60
2023-05-06T09:52:08.529Z,3.67
2023-05-06T09:54:35.585Z,4.82
2023-05-06T09:57:03.744Z,5.50
2023-05-06T09:59:30.736Z,5.97
2023-05-06T10:01:59.263Z,5.95
2023-05-06T10:04:26.802Z,2.80
2023-05-06T10:06:57.889Z,3.03
2023-05-06T10:09:25.000Z,4.88
2023-05-06T10:11:52.207Z,3.33
2023-05-06T10:14:19.098Z,3.13
2023-05-06T10:16:48.967Z,2.78
2023-05-06T10:19:18.578Z,4.35
2023-05-06T10:21:49.099Z,3.65
2023-05-06T10:24:18.148Z,3.58
2023-05-06T10:26:45.480Z,4.90
2023-05-06T10:29:13.350Z,2.70
2023-05-06T10:31:55.324Z,4.03
2023-05-06T10:34:22.570Z,2.72
2023-05-06T10:36:51.955Z,3.10
2023-05-06T10:39:18.838Z,3.08
2023-05-06T10:41:45.695Z,3.22
2023-05-06T10:44:12.883Z,3.67
2023-05-06T10:46:59.725Z,2.97
2023-05-06T10:49:26.589Z,3.58
2023-05-06T10:52:12.169Z,2.92
2023-05-06T10:54:51.538Z,2.80
2023-05-06T10:57:18.199Z,2.50
2023-05-06T10:59:46.612Z,4.68
2023-05-06T11:02:13.703Z,3.05
2023-05-06T11:04:40.307Z,6.88
2023-05-06T11:07:16.156Z,2.47
2023-05-06T11:09:58.225Z,4.32
2023-05-06T11:12:43.626Z,3.45
2023-05-06T11:15:19.519Z,3.10
2023-05-06T11:17:46.076Z,3.42
2023-05-06T11:20:22.927Z,2.67
2023-05-06T11:22:49.763Z,1.90
2023-05-06T11:25:35.012Z,3.55
2023-05-06T11:28:01.543Z,4.50
2023-05-06T11:30:28.011Z,2.75
2023-05-06T11:32:55.899Z,1.63
2023-05-06T11:35:22.941Z,2.65
2023-05-06T11:37:52.109Z,3.33
2023-05-06T11:40:18.642Z,2.83
2023-05-06T11:42:45.173Z,2.35
2023-05-06T11:45:12.137Z,4.22
2023-05-06T11:47:43.040Z,1.58
2023-05-06T11:50:09.774Z,6.30
2023-05-06T11:52:36.321Z,2.03
2023-05-06T11:55:07.226Z,4.13
2023-05-06T11:57:33.717Z,2.25
2023-05-06T12:00:00.198Z,2.28
2023-05-06T12:02:26.787Z,4.72
2023-05-06T12:04:53.679Z,3.30
2023-05-06T12:07:20.258Z,2.05
2023-05-06T12:09:47.836Z,2.35
2023-05-06T12:12:18.614Z,4.82
2023-05-06T12:14:45.585Z,4.88
2023-05-06T12:17:12.740Z,2.17
2023-05-06T12:19:39.244Z,1.88
2023-05-06T12:22:18.818Z,2.92
2023-05-06T12:24:46.103Z,4.00
2023-05-06T12:27:12.724Z,2.17
2023-05-06T12:29:39.597Z,2.65
2023-05-06T12:32:12.325Z,1.70
2023-05-06T12:34:39.529Z,2.10
2023-05-06T12:37:06.653Z,3.30
2023-05-06T12:39:37.366Z,2.33
2023-05-06T12:42:04.225Z,2.22
2023-05-06T12:44:32.382Z,2.42
2023-05-06T12:46:59.637Z,2.28
2023-05-06T12:49:26.239Z,2.78
2023-05-06T12:52:09.048Z,3.10
2023-05-06T12:54:36.178Z,2.78
2023-05-06T12:57:03.104Z,3.30
2023-05-06T12:59:29.694Z,2.45
2023-05-06T13:01:56.218Z,3.40
2023-05-06T13:04:23.092Z,2.67
2023-05-06T13:06:50.357Z,1.63
2023-05-06T13:09:16.994Z,1.63
2023-05-06T13:11:43.533Z,2.10
2023-05-06T13:14:10.917Z,1.95
2023-05-06T13:16:37.779Z,2.00
2023-05-06T13:19:09.360Z,3.85
2023-05-06T13:21:39.642Z,2.97
2023-05-06T13:24:07.237Z,3.33
2023-05-06T13:26:34.200Z,1.55
2023-05-06T13:29:00.778Z,3.83
2023-05-06T13:31:28.616Z,3.45
2023-05-06T13:36:22.694Z,3.20
2023-05-06T13:38:49.274Z,2.92
2023-05-06T13:41:16.411Z,4.57
2023-05-06T13:43:42.896Z,1.52
2023-05-06T13:46:09.804Z,2.03
2023-05-06T13:48:36.441Z,3.15
2023-05-06T13:51:03.051Z,3.30
2023-05-06T13:53:29.550Z,3.70
2023-05-06T13:55:56.057Z,3.60
2023-05-06T13:58:22.536Z,1.58
2023-05-06T14:00:49.232Z,3.72
2023-05-06T14:03:15.822Z,3.10
2023-05-06T14:05:42.464Z,4.18
2023-05-06T14:08:08.993Z,2.13
2023-05-06T14:10:35.543Z,2.00
2023-05-06T14:13:02.730Z,2.33
2023-05-06T14:15:30.401Z,3.97
2023-05-06T14:17:57.578Z,2.90
2023-05-06T14:20:24.120Z,4.10
2023-05-06T14:22:50.851Z,1.88
2023-05-06T14:25:17.370Z,1.92
2023-05-06T14:27:45.449Z,1.60
2023-05-06T14:30:12.175Z,2.30
2023-05-06T14:32:38.787Z,2.35
2023-05-06T14:35:06.016Z,2.53
2023-05-06T14:37:32.496Z,2.88
2023-05-06T14:39:58.964Z,3.05
2023-05-06T14:42:25.630Z,1.98
2023-05-06T14:44:52.117Z,3.25
2023-05-06T14:47:18.979Z,3.30
2023-05-06T14:49:45.587Z,2.58
2023-05-06T14:52:12.112Z,3.33
2023-05-06T14:54:42.449Z,1.85
2023-05-06T14:57:09.440Z,2.70
2023-05-06T14:59:36.544Z,1.77
2023-05-06T15:02:03.707Z,3.33
2023-05-06T15:04:30.755Z,3.17
2023-05-06T15:06:57.970Z,3.80
2023-05-06T15:09:27.500Z,3.25
2023-05-06T15:11:54.151Z,3.25
2023-05-06T15:14:20.653Z,1.77
2023-05-06T15:16:47.293Z,3.05
2023-05-06T15:19:13.823Z,5.45
2023-05-06T15:21:40.308Z,2.00
2023-05-06T15:24:07.244Z,2.28
2023-05-06T15:26:33.736Z,3.27
2023-05-06T15:29:00.437Z,2.40
2023-05-06T15:31:26.950Z,1.45
2023-05-06T15:33:53.500Z,1.48
2023-05-06T15:36:20.054Z,3.30
2023-05-06T15:38:52.380Z,1.83
2023-05-06T15:41:19.412Z,2.25
2023-05-06T15:43:45.888Z,1.77
2023-05-06T15:46:12.472Z,3.33
2023-05-06T15:48:39.012Z,3.35
2023-05-06T15:51:06.213Z,3.20
2023-05-06T15:53:32.705Z,1.88
2023-05-06T15:58:28.545Z,2.92
2023-05-06T16:00:55.005Z,3.70
2023-05-06T16:03:21.745Z,3.97
2023-05-06T16:05:48.693Z,4.07
2023-05-06T16:08:15.210Z,3.25
2023-05-06T16:10:41.810Z,2.88
2023-05-06T16:13:08.469Z,3.58
2023-05-06T16:15:35.569Z,3.25
2023-05-06T16:18:02.186Z,3.60
2023-05-06T16:20:29.680Z,4.53
2023-05-06T16:22:56.126Z,4.50
2023-05-06T16:25:22.609Z,3.10
2023-05-06T16:27:49.070Z,3.97
2023-05-06T16:30:15.655Z,4.43
2023-05-06T16:32:42.148Z,2.90
2023-05-06T16:35:08.865Z,1.95
2023-05-06T16:37:35.935Z,1.92
2023-05-06T16:40:02.816Z,2.43
2023-05-06T16:42:29.308Z,1.92
2023-05-06T16:44:55.912Z,3.42
2023-05-06T16:47:24.352Z,1.80
2023-05-06T16:49:51.031Z,2.05
2023-05-06T16:52:20.463Z,2.10
2023-05-06T16:54:46.958Z,3.70
2023-05-06T16:57:13.476Z,7.30
2023-05-06T16:59:39.945Z,2.90
2023-05-06T17:02:06.677Z,2.50
2023-05-06T17:04:33.270Z,1.98
2023-05-06T17:06:59.767Z,3.00
2023-05-06T17:09:26.217Z,2.30
2023-05-06T17:11:52.872Z,2.80
2023-05-06T17:14:19.959Z,2.20
2023-05-06T17:16:47.043Z,1.60
2023-05-06T17:19:13.663Z,2.70
2023-05-06T17:21:40.198Z,2.20
2023-05-06T17:24:06.745Z,3.75
2023-05-06T17:26:33.828Z,5.70
2023-05-06T17:29:00.584Z,3.40
2023-05-06T17:31:27.110Z,2.67
2023-05-06T17:33:53.716Z,3.28
2023-05-06T17:36:23.184Z,2.25
2023-05-06T17:39:01.735Z,3.08
2023-05-06T17:41:28.199Z,3.10
2023-05-06T17:43:54.656Z,4.05
2023-05-06T17:46:21.186Z,2.88
2023-05-06T17:48:47.726Z,2.70
2023-05-06T17:51:14.284Z,3.08
2023-05-06T17:53:41.887Z,3.38
2023-05-06T17:56:08.359Z,2.58
2023-05-06T17:58:34.808Z,2.53
2023-05-06T18:01:01.392Z,3.38
2023-05-06T18:03:27.961Z,2.97
2023-05-06T18:05:54.542Z,3.08
2023-05-06T18:08:21.040Z,4.32
2023-05-06T18:10:47.541Z,3.08
2023-05-06T18:13:14.099Z,3.30
2023-05-06T18:15:40.672Z,2.08
2023-05-06T18:18:07.240Z,3.15
2023-05-06T18:20:34.076Z,2.38
2023-05-06T18:23:00.646Z,5.18
2023-05-06T18:25:27.131Z,3.58
2023-05-06T18:27:53.608Z,3.85
2023-05-06T18:30:20.232Z,4.68
2023-05-06T18:32:48.202Z,4.70
2023-05-06T18:35:15.924Z,4.38
2023-05-06T18:37:42.409Z,3.85
2023-05-06T18:40:09.122Z,4.72
2023-05-06T18:42:35.783Z,6.53
2023-05-06T18:45:02.835Z,5.57
2023-05-06T18:47:29.307Z,3.00
2023-05-06T18:49:57.554Z,9.40
2023-05-06T18:54:50.513Z,9.55
2023-05-06T18:57:17.268Z,8.05
2023-05-06T18:59:43.801Z,5.20
2023-05-06T19:02:10.503Z,5.68
2023-05-06T19:04:37.056Z,6.50
2023-05-06T19:07:03.631Z,5.80
2023-05-06T19:09:32.812Z,3.72
2023-05-06T19:11:59.245Z,4.15
2023-05-06T19:14:28.738Z,4.03
2023-05-06T19:16:55.420Z,7.28
2023-05-06T19:19:22.084Z,6.03
2023-05-06T19:21:48.594Z,6.78
2023-05-06T19:24:15.194Z,9.23
2023-05-06T19:26:41.783Z,6.80
2023-05-06T19:29:08.405Z,6.28
2023-05-06T19:31:35.030Z,7.22
2023-05-06T19:34:01.865Z,6.60
2023-05-06T19:36:28.392Z,7.05
2023-05-06T19:38:54.942Z,5.35
2023-05-06T19:41:21.532Z,5.07
2023-05-06T19:43:48.540Z,7.38
2023-05-06T19:46:16.015Z,6.53
2023-05-06T19:48:42.544Z,7.30
2023-05-06T19:51:09.096Z,6.53
2023-05-06T19:53:36.131Z,6.38
2023-05-06T19:56:12.434Z,6.93
2023-05-06T19:58:39.534Z,4.78
2023-05-06T20:01:06.110Z,6.22
2023-05-06T20:03:33.205Z,6.30
2023-05-06T20:06:00.010Z,8.05
2023-05-06T20:08:27.013Z,5.78
2023-05-06T20:10:53.595Z,7.13
2023-05-06T20:13:20.447Z,7.00
2023-05-06T20:15:47.641Z,6.25
2023-05-06T20:18:14.558Z,4.40
2023-05-06T20:20:41.434Z,5.75
2023-05-06T20:23:07.942Z,5.53
2023-05-06T20:25:36.967Z,7.90
2023-05-06T20:28:04.764Z,7.13
2023-05-06T20:30:31.491Z,7.38
2023-05-06T20:32:58.093Z,7.53
2023-05-06T20:35:27.451Z,8.98
2023-05-06T20:37:54.622Z,6.25
2023-05-06T20:40:21.419Z,5.28
2023-05-06T20:42:48.334Z,6.13
2023-05-06T20:45:14.881Z,6.70
2023-05-06T20:47:41.503Z,6.13
2023-05-06T20:50:08.293Z,10.80
2023-05-06T20:52:35.072Z,5.75
2023-05-06T20:55:01.847Z,5.43
2023-05-06T20:57:28.759Z,7.97
2023-05-06T20:59:56.123Z,4.82
2023-05-06T21:02:22.906Z,6.47
2023-05-06T21:04:49.572Z,6.95
2023-05-06T21:07:16.086Z,7.65
2023-05-06T21:09:42.679Z,6.40
2023-05-06T21:12:09.406Z,6.97
2023-05-06T21:14:35.983Z,6.40
2023-05-06T21:17:02.781Z,6.15
2023-05-06T21:19:29.367Z,5.18
2023-05-06T21:21:56.908Z,5.05
2023-05-06T21:24:23.448Z,7.30
2023-05-06T21:26:51.377Z,6.55
2023-05-06T21:29:17.908Z,5.75
2023-05-06T21:31:44.626Z,5.90
2023-05-06T21:34:11.377Z,5.18
2023-05-06T21:36:38.373Z,5.80
2023-05-06T21:39:12.163Z,4.97
2023-05-06T21:41:38.882Z,7.20
2023-05-06T21:44:06.150Z,6.07
2023-05-06T21:46:33.347Z,6.13
2023-05-06T21:49:00.774Z,5.35
2023-05-06T21:51:28.100Z,5.30
2023-05-06T21:53:54.708Z,7.32
2023-05-06T21:56:22.038Z,3.95
2023-05-06T21:58:48.859Z,4.07
2023-05-06T22:01:15.825Z,6.18
2023-05-06T22:03:43.005Z,6.95
2023-05-06T22:06:09.719Z,4.47
2023-05-06T22:08:36.494Z,6.63
2023-05-06T22:11:03.457Z,4.00
2023-05-06T22:13:31.242Z,5.60
2023-05-06T22:15:57.930Z,6.57
2023-05-06T22:18:25.661Z,6.63
2023-05-06T22:20:54.834Z,5.90
2023-05-06T22:23:23.028Z,9.07
2023-05-06T22:25:50.008Z,5.30
2023-05-06T22:28:16.495Z,6.00
2023-05-06T22:30:43.009Z,8.98
2023-05-06T22:33:09.516Z,9.00
2023-05-06T22:35:36.080Z,11.32
2023-05-06T22:38:02.574Z,8.43
2023-05-06T22:40:29.167Z,8.30
2023-05-06T22:42:55.800Z,10.30
2023-05-06T22:45:22.297Z,6.65
2023-05-06T22:47:48.886Z,7.70
